sensor_id;sensor_type;location;lat;lon;timestamp;P1;durP1;ratioP1;P2;durP2;ratioP2
55186;SDS011;55457;52.002;5.464;2023-05-29T00:02:12;5.28;;;3.70;;
55186;SDS011;55457;52.002;5.464;2023-05-29T00:04:37;6.72;;;3.47;;
55186;SDS011;55457;52.002;5.464;2023-05-29T00:07:04;6.18;;;3.45;;
55186;SDS011;55457;52.002;5.464;2023-05-29T00:09:29;5.10;;;3.13;;
55186;SDS011;55457;52.002;5.464;2023-05-29T00:11:55;6.53;;;3.50;;
55186;SDS011;55457;52.002;5.464;2023-05-29T00:14:20;6.05;;;3.30;;
55186;SDS011;55457;52.002;5.464;2023-05-29T00:16:47;7.47;;;3.50;;
55186;SDS011;55457;52.002;5.464;2023-05-29T00:19:13;6.15;;;3.53;;
55186;SDS011;55457;52.002;5.464;2023-05-29T00:21:42;5.63;;;3.72;;
55186;SDS011;55457;52.002;5.464;2023-05-29T00:24:07;8.25;;;3.80;;
55186;SDS011;55457;52.002;5.464;2023-05-29T00:26:33;7.40;;;4.13;;
55186;SDS011;55457;52.002;5.464;2023-05-29T00:28:58;7.15;;;3.80;;
55186;SDS011;55457;52.002;5.464;2023-05-29T00:31:23;6.07;;;3.22;;
55186;SDS011;55457;52.002;5.464;2023-05-29T00:33:49;6.85;;;3.90;;
55186;SDS011;55457;52.002;5.464;2023-05-29T00:36:14;3.83;;;2.70;;
55186;SDS011;55457;52.002;5.464;2023-05-29T00:38:41;7.47;;;3.95;;
55186;SDS011;55457;52.002;5.464;2023-05-29T00:41:06;5.82;;;3.22;;
55186;SDS011;55457;52.002;5.464;2023-05-29T00:43:31;8.63;;;4.13;;
55186;SDS011;55457;52.002;5.464;2023-05-29T00:45:57;8.20;;;3.75;;
55186;SDS011;55457;52.002;5.464;2023-05-29T00:48:23;6.80;;;3.90;;
55186;SDS011;55457;52.002;5.464;2023-05-29T00:50:50;8.40;;;3.63;;
55186;SDS011;55457;52.002;5.464;2023-05-29T00:53:15;4.53;;;3.38;;
55186;SDS011;55457;52.002;5.464;2023-05-29T00:55:41;6.45;;;3.53;;
55186;SDS011;55457;52.002;5.464;2023-05-29T00:58:06;7.28;;;3.42;;
55186;SDS011;55457;52.002;5.464;2023-05-29T01:00:32;5.10;;;3.30;;
55186;SDS011;55457;52.002;5.464;2023-05-29T01:02:59;6.55;;;4.00;;
55186;SDS011;55457;52.002;5.464;2023-05-29T01:05:29;7.55;;;3.03;;
55186;SDS011;55457;52.002;5.464;2023-05-29T01:07:56;5.47;;;3.45;;
55186;SDS011;55457;52.002;5.464;2023-05-29T01:10:21;7.93;;;3.78;;
55186;SDS011;55457;52.002;5.464;2023-05-29T01:12:51;6.88;;;3.00;;
55186;SDS011;55457;52.002;5.464;2023-05-29T01:21:09;5.93;;;3.22;;
55186;SDS011;55457;52.002;5.464;2023-05-29T01:29:10;6.30;;;3.28;;
55186;SDS011;55457;52.002;5.464;2023-05-29T01:31:39;4.85;;;2.72;;
55186;SDS011;55457;52.002;5.464;2023-05-29T01:34:05;3.78;;;2.53;;
55186;SDS011;55457;52.002;5.464;2023-05-29T01:36:30;4.15;;;2.65;;
55186;SDS011;55457;52.002;5.464;2023-05-29T01:38:57;5.40;;;3.13;;
55186;SDS011;55457;52.002;5.464;2023-05-29T01:41:24;6.10;;;3.33;;
55186;SDS011;55457;52.002;5.464;2023-05-29T01:43:51;5.78;;;2.80;;
55186;SDS011;55457;52.002;5.464;2023-05-29T01:46:17;5.40;;;3.08;;
55186;SDS011;55457;52.002;5.464;2023-05-29T01:48:44;5.53;;;3.63;;
55186;SDS011;55457;52.002;5.464;2023-05-29T01:51:10;5.68;;;3.53;;
55186;SDS011;55457;52.002;5.464;2023-05-29T01:53:37;5.07;;;2.97;;
55186;SDS011;55457;52.002;5.464;2023-05-29T01:56:06;5.07;;;2.88;;
55186;SDS011;55457;52.002;5.464;2023-05-29T01:58:32;6.95;;;3.60;;
55186;SDS011;55457;52.002;5.464;2023-05-29T02:00:59;5.75;;;2.95;;
55186;SDS011;55457;52.002;5.464;2023-05-29T02:03:26;5.60;;;3.10;;
55186;SDS011;55457;52.002;5.464;2023-05-29T02:05:55;5.57;;;2.75;;
55186;SDS011;55457;52.002;5.464;2023-05-29T02:08:22;5.50;;;3.05;;
55186;SDS011;55457;52.002;5.464;2023-05-29T02:10:47;5.07;;;3.53;;
55186;SDS011;55457;52.002;5.464;2023-05-29T02:13:13;4.43;;;2.80;;
55186;SDS011;55457;52.002;5.464;2023-05-29T02:15:38;4.82;;;2.90;;
55186;SDS011;55457;52.002;5.464;2023-05-29T02:18:03;6.38;;;3.10;;
55186;SDS011;55457;52.002;5.464;2023-05-29T02:20:29;4.57;;;2.78;;
55186;SDS011;55457;52.002;5.464;2023-05-29T02:22:54;5.07;;;3.08;;
55186;SDS011;55457;52.002;5.464;2023-05-29T02:25:19;6.38;;;3.35;;
55186;SDS011;55457;52.002;5.464;2023-05-29T02:27:45;3.92;;;3.05;;
55186;SDS011;55457;52.002;5.464;2023-05-29T02:30:10;5.88;;;2.92;;
55186;SDS011;55457;52.002;5.464;2023-05-29T02:32:36;9.65;;;3.67;;
55186;SDS011;55457;52.002;5.464;2023-05-29T02:35:01;4.13;;;2.40;;
55186;SDS011;55457;52.002;5.464;2023-05-29T02:37:27;6.22;;;3.15;;
55186;SDS011;55457;52.002;5.464;2023-05-29T02:39:53;4.78;;;2.30;;
55186;SDS011;55457;52.002;5.464;2023-05-29T02:42:18;6.68;;;2.92;;
55186;SDS011;55457;52.002;5.464;2023-05-29T02:44:43;6.13;;;3.00;;
55186;SDS011;55457;52.002;5.464;2023-05-29T02:47:09;5.47;;;2.90;;
55186;SDS011;55457;52.002;5.464;2023-05-29T02:49:34;5.78;;;2.95;;
55186;SDS011;55457;52.002;5.464;2023-05-29T02:52:00;6.53;;;3.15;;
55186;SDS011;55457;52.002;5.464;2023-05-29T02:54:25;6.63;;;3.08;;
55186;SDS011;55457;52.002;5.464;2023-05-29T02:56:51;6.45;;;2.88;;
55186;SDS011;55457;52.002;5.464;2023-05-29T02:59:17;6.47;;;2.88;;
55186;SDS011;55457;52.002;5.464;2023-05-29T03:01:42;6.38;;;2.80;;
55186;SDS011;55457;52.002;5.464;2023-05-29T03:04:08;4.85;;;2.78;;
55186;SDS011;55457;52.002;5.464;2023-05-29T03:06:35;6.00;;;2.60;;
55186;SDS011;55457;52.002;5.464;2023-05-29T03:09:01;3.85;;;2.58;;
55186;SDS011;55457;52.002;5.464;2023-05-29T03:11:27;5.78;;;2.70;;
55186;SDS011;55457;52.002;5.464;2023-05-29T03:13:54;5.72;;;2.55;;
55186;SDS011;55457;52.002;5.464;2023-05-29T03:16:19;5.20;;;2.85;;
55186;SDS011;55457;52.002;5.464;2023-05-29T03:18:46;5.55;;;2.88;;
55186;SDS011;55457;52.002;5.464;2023-05-29T03:21:11;6.75;;;2.72;;
55186;SDS011;55457;52.002;5.464;2023-05-29T03:23:36;4.25;;;2.58;;
55186;SDS011;55457;52.002;5.464;2023-05-29T03:26:02;4.95;;;2.75;;
55186;SDS011;55457;52.002;5.464;2023-05-29T03:28:28;4.63;;;2.00;;
55186;SDS011;55457;52.002;5.464;2023-05-29T03:30:54;4.13;;;2.30;;
55186;SDS011;55457;52.002;5.464;2023-05-29T03:33:19;4.38;;;2.50;;
55186;SDS011;55457;52.002;5.464;2023-05-29T03:35:44;5.00;;;2.63;;
55186;SDS011;55457;52.002;5.464;2023-05-29T03:38:10;5.95;;;2.75;;
55186;SDS011;55457;52.002;5.464;2023-05-29T03:40:35;4.15;;;2.00;;
55186;SDS011;55457;52.002;5.464;2023-05-29T03:43:00;5.53;;;2.50;;
55186;SDS011;55457;52.002;5.464;2023-05-29T03:45:26;6.40;;;2.30;;
55186;SDS011;55457;52.002;5.464;2023-05-29T03:47:52;5.20;;;2.67;;
55186;SDS011;55457;52.002;5.464;2023-05-29T03:50:17;5.20;;;2.47;;
55186;SDS011;55457;52.002;5.464;2023-05-29T03:52:43;4.25;;;2.30;;
55186;SDS011;55457;52.002;5.464;2023-05-29T03:55:09;5.57;;;2.55;;
55186;SDS011;55457;52.002;5.464;2023-05-29T03:57:39;5.75;;;2.38;;
55186;SDS011;55457;52.002;5.464;2023-05-29T04:00:09;5.10;;;2.63;;
55186;SDS011;55457;52.002;5.464;2023-05-29T04:02:37;7.22;;;3.17;;
55186;SDS011;55457;52.002;5.464;2023-05-29T04:05:06;5.18;;;2.38;;
55186;SDS011;55457;52.002;5.464;2023-05-29T04:07:33;5.50;;;2.15;;
55186;SDS011;55457;52.002;5.464;2023-05-29T04:10:01;8.70;;;2.63;;
55186;SDS011;55457;52.002;5.464;2023-05-29T04:12:27;5.47;;;2.42;;
55186;SDS011;55457;52.002;5.464;2023-05-29T04:14:52;5.93;;;2.42;;
55186;SDS011;55457;52.002;5.464;2023-05-29T04:17:18;4.45;;;2.35;;
55186;SDS011;55457;52.002;5.464;2023-05-29T04:19:43;4.43;;;2.33;;
55186;SDS011;55457;52.002;5.464;2023-05-29T04:22:08;5.03;;;2.67;;
55186;SDS011;55457;52.002;5.464;2023-05-29T04:24:34;5.32;;;2.40;;
55186;SDS011;55457;52.002;5.464;2023-05-29T04:27:00;4.00;;;1.90;;
55186;SDS011;55457;52.002;5.464;2023-05-29T04:29:26;5.25;;;2.45;;
55186;SDS011;55457;52.002;5.464;2023-05-29T04:31:53;3.78;;;2.35;;
55186;SDS011;55457;52.002;5.464;2023-05-29T04:34:20;6.38;;;3.03;;
55186;SDS011;55457;52.002;5.464;2023-05-29T04:36:47;4.03;;;2.25;;
55186;SDS011;55457;52.002;5.464;2023-05-29T04:39:12;5.07;;;2.30;;
55186;SDS011;55457;52.002;5.464;2023-05-29T04:41:41;5.18;;;1.95;;
55186;SDS011;55457;52.002;5.464;2023-05-29T04:44:07;5.43;;;2.20;;
55186;SDS011;55457;52.002;5.464;2023-05-29T04:46:35;4.95;;;2.55;;
55186;SDS011;55457;52.002;5.464;2023-05-29T04:49:00;5.13;;;2.05;;
55186;SDS011;55457;52.002;5.464;2023-05-29T04:51:27;3.80;;;2.47;;
55186;SDS011;55457;52.002;5.464;2023-05-29T04:53:53;4.10;;;1.63;;
55186;SDS011;55457;52.002;5.464;2023-05-29T04:56:18;7.10;;;2.47;;
55186;SDS011;55457;52.002;5.464;2023-05-29T04:58:44;4.95;;;2.13;;
55186;SDS011;55457;52.002;5.464;2023-05-29T05:01:09;3.30;;;1.60;;
55186;SDS011;55457;52.002;5.464;2023-05-29T05:03:39;5.85;;;1.77;;
55186;SDS011;55457;52.002;5.464;2023-05-29T05:06:05;4.15;;;2.13;;
55186;SDS011;55457;52.002;5.464;2023-05-29T05:08:32;4.35;;;1.80;;
55186;SDS011;55457;52.002;5.464;2023-05-29T05:10:58;3.00;;;2.03;;
55186;SDS011;55457;52.002;5.464;2023-05-29T05:13:24;5.35;;;2.47;;
55186;SDS011;55457;52.002;5.464;2023-05-29T05:15:50;5.15;;;2.88;;
55186;SDS011;55457;52.002;5.464;2023-05-29T05:18:15;5.13;;;2.13;;
55186;SDS011;55457;52.002;5.464;2023-05-29T05:20:41;2.88;;;1.55;;
55186;SDS011;55457;52.002;5.464;2023-05-29T05:23:06;4.15;;;1.90;;
55186;SDS011;55457;52.002;5.464;2023-05-29T05:25:32;5.28;;;2.08;;
55186;SDS011;55457;52.002;5.464;2023-05-29T05:27:59;4.38;;;1.80;;
55186;SDS011;55457;52.002;5.464;2023-05-29T05:30:25;5.60;;;2.50;;
55186;SDS011;55457;52.002;5.464;2023-05-29T05:32:50;4.78;;;2.58;;
55186;SDS011;55457;52.002;5.464;2023-05-29T05:35:15;3.60;;;2.08;;
55186;SDS011;55457;52.002;5.464;2023-05-29T05:37:41;7.05;;;2.08;;
55186;SDS011;55457;52.002;5.464;2023-05-29T05:40:06;5.43;;;1.95;;
55186;SDS011;55457;52.002;5.464;2023-05-29T05:42:33;4.93;;;2.00;;
55186;SDS011;55457;52.002;5.464;2023-05-29T05:44:58;4.78;;;1.88;;
55186;SDS011;55457;52.002;5.464;2023-05-29T05:47:24;5.10;;;1.88;;
55186;SDS011;55457;52.002;5.464;2023-05-29T05:49:49;5.60;;;1.90;;
55186;SDS011;55457;52.002;5.464;2023-05-29T05:52:16;3.95;;;1.65;;
55186;SDS011;55457;52.002;5.464;2023-05-29T05:54:44;4.15;;;2.10;;
55186;SDS011;55457;52.002;5.464;2023-05-29T05:57:10;5.35;;;1.90;;
55186;SDS011;55457;52.002;5.464;2023-05-29T05:59:35;4.07;;;1.75;;
55186;SDS011;55457;52.002;5.464;2023-05-29T06:02:00;4.43;;;1.55;;
55186;SDS011;55457;52.002;5.464;2023-05-29T06:04:26;5.43;;;1.55;;
55186;SDS011;55457;52.002;5.464;2023-05-29T06:06:52;5.43;;;2.13;;
55186;SDS011;55457;52.002;5.464;2023-05-29T06:09:17;4.00;;;2.63;;
55186;SDS011;55457;52.002;5.464;2023-05-29T06:11:42;4.72;;;1.80;;
55186;SDS011;55457;52.002;5.464;2023-05-29T06:14:08;3.53;;;1.67;;
55186;SDS011;55457;52.002;5.464;2023-05-29T06:16:33;2.90;;;1.38;;
55186;SDS011;55457;52.002;5.464;2023-05-29T06:18:59;6.10;;;1.73;;
55186;SDS011;55457;52.002;5.464;2023-05-29T06:21:25;5.55;;;1.70;;
55186;SDS011;55457;52.002;5.464;2023-05-29T06:23:50;3.53;;;1.60;;
55186;SDS011;55457;52.002;5.464;2023-05-29T06:26:16;4.30;;;1.90;;
55186;SDS011;55457;52.002;5.464;2023-05-29T06:28:41;5.20;;;1.92;;
55186;SDS011;55457;52.002;5.464;2023-05-29T06:31:08;5.05;;;1.40;;
55186;SDS011;55457;52.002;5.464;2023-05-29T06:33:33;3.65;;;1.75;;
55186;SDS011;55457;52.002;5.464;2023-05-29T06:35:58;4.60;;;1.38;;
55186;SDS011;55457;52.002;5.464;2023-05-29T06:38:24;4.70;;;2.10;;
55186;SDS011;55457;52.002;5.464;2023-05-29T06:40:49;3.42;;;1.77;;
55186;SDS011;55457;52.002;5.464;2023-05-29T06:43:15;6.18;;;2.15;;
55186;SDS011;55457;52.002;5.464;2023-05-29T06:45:40;6.75;;;2.15;;
55186;SDS011;55457;52.002;5.464;2023-05-29T06:48:06;3.65;;;1.80;;
55186;SDS011;55457;52.002;5.464;2023-05-29T06:50:31;3.95;;;2.03;;
55186;SDS011;55457;52.002;5.464;2023-05-29T06:52:58;4.97;;;1.30;;
55186;SDS011;55457;52.002;5.464;2023-05-29T06:55:25;4.53;;;1.75;;
55186;SDS011;55457;52.002;5.464;2023-05-29T06:57:51;5.18;;;2.17;;
55186;SDS011;55457;52.002;5.464;2023-05-29T07:00:16;3.95;;;1.38;;
55186;SDS011;55457;52.002;5.464;2023-05-29T07:02:42;3.72;;;1.90;;
55186;SDS011;55457;52.002;5.464;2023-05-29T07:05:08;4.45;;;2.00;;
55186;SDS011;55457;52.002;5.464;2023-05-29T07:07:33;3.78;;;1.65;;
55186;SDS011;55457;52.002;5.464;2023-05-29T07:09:59;5.57;;;2.38;;
55186;SDS011;55457;52.002;5.464;2023-05-29T07:12:25;4.53;;;1.48;;
55186;SDS011;55457;52.002;5.464;2023-05-29T07:14:51;5.40;;;2.47;;
55186;SDS011;55457;52.002;5.464;2023-05-29T07:17:17;3.15;;;1.70;;
55186;SDS011;55457;52.002;5.464;2023-05-29T07:19:42;4.00;;;1.52;;
55186;SDS011;55457;52.002;5.464;2023-05-29T07:22:07;4.15;;;1.83;;
55186;SDS011;55457;52.002;5.464;2023-05-29T07:24:33;4.95;;;1.80;;
55186;SDS011;55457;52.002;5.464;2023-05-29T07:26:58;4.38;;;1.73;;
55186;SDS011;55457;52.002;5.464;2023-05-29T07:29:23;4.70;;;2.22;;
55186;SDS011;55457;52.002;5.464;2023-05-29T07:31:49;4.40;;;1.80;;
55186;SDS011;55457;52.002;5.464;2023-05-29T07:34:15;3.83;;;1.52;;
55186;SDS011;55457;52.002;5.464;2023-05-29T07:39:30;5.07;;;1.90;;
55186;SDS011;55457;52.002;5.464;2023-05-29T07:41:56;4.82;;;1.70;;
55186;SDS011;55457;52.002;5.464;2023-05-29T07:44:22;3.83;;;1.92;;
55186;SDS011;55457;52.002;5.464;2023-05-29T07:46:47;4.55;;;2.25;;
55186;SDS011;55457;52.002;5.464;2023-05-29T07:49:13;3.78;;;1.75;;
55186;SDS011;55457;52.002;5.464;2023-05-29T07:51:38;3.55;;;1.55;;
55186;SDS011;55457;52.002;5.464;2023-05-29T07:56:30;4.05;;;2.17;;
55186;SDS011;55457;52.002;5.464;2023-05-29T07:58:56;6.40;;;1.73;;
55186;SDS011;55457;52.002;5.464;2023-05-29T08:01:21;6.75;;;1.60;;
55186;SDS011;55457;52.002;5.464;2023-05-29T08:03:47;3.35;;;1.63;;
55186;SDS011;55457;52.002;5.464;2023-05-29T08:06:13;3.47;;;1.67;;
55186;SDS011;55457;52.002;5.464;2023-05-29T08:08:38;3.47;;;1.85;;
55186;SDS011;55457;52.002;5.464;2023-05-29T08:11:04;5.10;;;1.67;;
55186;SDS011;55457;52.002;5.464;2023-05-29T08:13:30;4.25;;;1.70;;
55186;SDS011;55457;52.002;5.464;2023-05-29T08:15:56;4.30;;;1.50;;
55186;SDS011;55457;52.002;5.464;2023-05-29T08:18:24;4.53;;;1.90;;
55186;SDS011;55457;52.002;5.464;2023-05-29T08:20:50;5.78;;;2.35;;
55186;SDS011;55457;52.002;5.464;2023-05-29T08:23:16;5.25;;;1.70;;
55186;SDS011;55457;52.002;5.464;2023-05-29T08:25:41;4.30;;;1.70;;
55186;SDS011;55457;52.002;5.464;2023-05-29T08:28:07;3.65;;;1.60;;
55186;SDS011;55457;52.002;5.464;2023-05-29T08:30:32;5.05;;;2.00;;
55186;SDS011;55457;52.002;5.464;2023-05-29T08:32:58;4.47;;;1.75;;
55186;SDS011;55457;52.002;5.464;2023-05-29T08:35:23;7.05;;;1.65;;
55186;SDS011;55457;52.002;5.464;2023-05-29T08:37:48;6.03;;;1.50;;
55186;SDS011;55457;52.002;5.464;2023-05-29T08:40:14;5.35;;;1.95;;
55186;SDS011;55457;52.002;5.464;2023-05-29T08:42:41;6.32;;;2.20;;
55186;SDS011;55457;52.002;5.464;2023-05-29T08:45:12;11.50;;;2.78;;
55186;SDS011;55457;52.002;5.464;2023-05-29T08:47:40;13.50;;;2.20;;
55186;SDS011;55457;52.002;5.464;2023-05-29T08:50:06;6.90;;;2.92;;
55186;SDS011;55457;52.002;5.464;2023-05-29T08:52:33;12.85;;;2.53;;
55186;SDS011;55457;52.002;5.464;2023-05-29T08:55:02;12.88;;;2.60;;
55186;SDS011;55457;52.002;5.464;2023-05-29T08:57:28;10.02;;;2.78;;
55186;SDS011;55457;52.002;5.464;2023-05-29T08:59:55;12.45;;;2.58;;
55186;SDS011;55457;52.002;5.464;2023-05-29T09:02:21;8.60;;;2.70;;
55186;SDS011;55457;52.002;5.464;2023-05-29T09:04:47;13.27;;;2.90;;
55186;SDS011;55457;52.002;5.464;2023-05-29T09:07:14;10.25;;;2.65;;
55186;SDS011;55457;52.002;5.464;2023-05-29T09:09:41;12.15;;;2.55;;
55186;SDS011;55457;52.002;5.464;2023-05-29T09:12:07;10.10;;;2.88;;
55186;SDS011;55457;52.002;5.464;2023-05-29T09:14:38;10.77;;;2.28;;
55186;SDS011;55457;52.002;5.464;2023-05-29T09:17:06;11.40;;;2.53;;
55186;SDS011;55457;52.002;5.464;2023-05-29T09:19:33;10.98;;;2.80;;
55186;SDS011;55457;52.002;5.464;2023-05-29T09:22:00;12.68;;;2.63;;
55186;SDS011;55457;52.002;5.464;2023-05-29T09:24:27;8.07;;;2.30;;
55186;SDS011;55457;52.002;5.464;2023-05-29T09:26:53;19.35;;;2.78;;
55186;SDS011;55457;52.002;5.464;2023-05-29T09:29:19;7.07;;;2.60;;
55186;SDS011;55457;52.002;5.464;2023-05-29T09:31:48;9.40;;;3.30;;
55186;SDS011;55457;52.002;5.464;2023-05-29T09:34:14;5.47;;;1.77;;
55186;SDS011;55457;52.002;5.464;2023-05-29T09:36:40;9.55;;;2.03;;
55186;SDS011;55457;52.002;5.464;2023-05-29T09:39:05;8.00;;;1.95;;
55186;SDS011;55457;52.002;5.464;2023-05-29T09:41:34;10.35;;;2.35;;
55186;SDS011;55457;52.002;5.464;2023-05-29T09:44:06;10.20;;;1.95;;
55186;SDS011;55457;52.002;5.464;2023-05-29T09:46:35;7.35;;;1.88;;
55186;SDS011;55457;52.002;5.464;2023-05-29T09:49:03;5.88;;;2.13;;
55186;SDS011;55457;52.002;5.464;2023-05-29T09:51:35;5.72;;;2.00;;
55186;SDS011;55457;52.002;5.464;2023-05-29T09:54:12;16.02;;;2.50;;
55186;SDS011;55457;52.002;5.464;2023-05-29T09:56:41;7.47;;;2.00;;
55186;SDS011;55457;52.002;5.464;2023-05-29T09:59:09;6.88;;;2.00;;
55186;SDS011;55457;52.002;5.464;2023-05-29T10:01:37;6.32;;;2.17;;
55186;SDS011;55457;52.002;5.464;2023-05-29T10:04:07;10.23;;;2.28;;
55186;SDS011;55457;52.002;5.464;2023-05-29T10:06:35;10.65;;;2.53;;
55186;SDS011;55457;52.002;5.464;2023-05-29T10:09:02;10.70;;;3.15;;
55186;SDS011;55457;52.002;5.464;2023-05-29T10:11:30;10.02;;;1.85;;
55186;SDS011;55457;52.002;5.464;2023-05-29T10:13:57;7.93;;;2.50;;
55186;SDS011;55457;52.002;5.464;2023-05-29T10:16:25;7.60;;;2.22;;
55186;SDS011;55457;52.002;5.464;2023-05-29T10:18:55;6.82;;;2.35;;
55186;SDS011;55457;52.002;5.464;2023-05-29T10:21:22;9.10;;;2.15;;
55186;SDS011;55457;52.002;5.464;2023-05-29T10:23:51;8.63;;;2.42;;
55186;SDS011;55457;52.002;5.464;2023-05-29T10:26:21;5.55;;;1.85;;
55186;SDS011;55457;52.002;5.464;2023-05-29T10:34:39;8.77;;;2.08;;
55186;SDS011;55457;52.002;5.464;2023-05-29T10:40:05;8.07;;;1.95;;
55186;SDS011;55457;52.002;5.464;2023-05-29T10:42:47;9.07;;;3.15;;
55186;SDS011;55457;52.002;5.464;2023-05-29T10:50:41;6.75;;;2.00;;
55186;SDS011;55457;52.002;5.464;2023-05-29T10:53:31;7.18;;;2.15;;
55186;SDS011;55457;52.002;5.464;2023-05-29T10:55:56;8.35;;;2.38;;
55186;SDS011;55457;52.002;5.464;2023-05-29T10:58:25;4.97;;;1.63;;
55186;SDS011;55457;52.002;5.464;2023-05-29T11:00:51;4.13;;;1.80;;
55186;SDS011;55457;52.002;5.464;2023-05-29T11:03:53;7.25;;;2.53;;
55186;SDS011;55457;52.002;5.464;2023-05-29T11:06:20;5.97;;;1.93;;
55186;SDS011;55457;52.002;5.464;2023-05-29T11:08:55;8.40;;;2.90;;
55186;SDS011;55457;52.002;5.464;2023-05-29T11:11:30;5.35;;;2.55;;
55186;SDS011;55457;52.002;5.464;2023-05-29T11:14:02;3.40;;;1.90;;
55186;SDS011;55457;52.002;5.464;2023-05-29T11:18:55;7.57;;;2.20;;
55186;SDS011;55457;52.002;5.464;2023-05-29T11:24:05;5.15;;;2.20;;
55186;SDS011;55457;52.002;5.464;2023-05-29T11:26:32;7.57;;;1.90;;
55186;SDS011;55457;52.002;5.464;2023-05-29T11:29:01;8.57;;;1.90;;
55186;SDS011;55457;52.002;5.464;2023-05-29T11:31:30;5.18;;;1.85;;
55186;SDS011;55457;52.002;5.464;2023-05-29T11:34:01;3.58;;;1.95;;
55186;SDS011;55457;52.002;5.464;2023-05-29T11:36:30;2.95;;;1.65;;
55186;SDS011;55457;52.002;5.464;2023-05-29T11:38:57;6.22;;;2.08;;
55186;SDS011;55457;52.002;5.464;2023-05-29T11:41:23;4.82;;;1.80;;
55186;SDS011;55457;52.002;5.464;2023-05-29T11:44:01;5.15;;;1.70;;
55186;SDS011;55457;52.002;5.464;2023-05-29T11:46:28;4.72;;;2.08;;
55186;SDS011;55457;52.002;5.464;2023-05-29T11:48:57;6.38;;;1.90;;
55186;SDS011;55457;52.002;5.464;2023-05-29T11:51:23;6.70;;;2.00;;
55186;SDS011;55457;52.002;5.464;2023-05-29T11:53:49;4.65;;;1.83;;
55186;SDS011;55457;52.002;5.464;2023-05-29T11:56:18;3.78;;;1.60;;
55186;SDS011;55457;52.002;5.464;2023-05-29T11:58:43;5.78;;;2.25;;
55186;SDS011;55457;52.002;5.464;2023-05-29T12:01:09;5.05;;;2.40;;
55186;SDS011;55457;52.002;5.464;2023-05-29T12:03:41;7.00;;;2.25;;
55186;SDS011;55457;52.002;5.464;2023-05-29T12:06:10;7.18;;;2.15;;
55186;SDS011;55457;52.002;5.464;2023-05-29T12:08:35;5.18;;;2.50;;
55186;SDS011;55457;52.002;5.464;2023-05-29T12:11:02;4.53;;;2.15;;
55186;SDS011;55457;52.002;5.464;2023-05-29T12:13:27;4.60;;;1.67;;
55186;SDS011;55457;52.002;5.464;2023-05-29T12:15:55;3.03;;;1.88;;
55186;SDS011;55457;52.002;5.464;2023-05-29T12:18:23;4.15;;;1.90;;
55186;SDS011;55457;52.002;5.464;2023-05-29T12:20:50;5.55;;;1.92;;
55186;SDS011;55457;52.002;5.464;2023-05-29T12:23:15;5.40;;;1.88;;
55186;SDS011;55457;52.002;5.464;2023-05-29T12:25:45;4.45;;;1.77;;
55186;SDS011;55457;52.002;5.464;2023-05-29T12:28:11;4.00;;;1.90;;
55186;SDS011;55457;52.002;5.464;2023-05-29T12:30:41;6.43;;;1.80;;
55186;SDS011;55457;52.002;5.464;2023-05-29T12:33:08;5.13;;;1.60;;
55186;SDS011;55457;52.002;5.464;2023-05-29T12:35:34;3.70;;;1.55;;
55186;SDS011;55457;52.002;5.464;2023-05-29T12:38:00;8.75;;;2.00;;
55186;SDS011;55457;52.002;5.464;2023-05-29T12:40:27;5.43;;;1.75;;
55186;SDS011;55457;52.002;5.464;2023-05-29T12:43:00;3.65;;;1.95;;
55186;SDS011;55457;52.002;5.464;2023-05-29T12:45:29;3.38;;;2.20;;
55186;SDS011;55457;52.002;5.464;2023-05-29T12:50:22;8.25;;;2.28;;
55186;SDS011;55457;52.002;5.464;2023-05-29T12:53:08;4.88;;;2.00;;
55186;SDS011;55457;52.002;5.464;2023-05-29T12:55:36;4.50;;;2.25;;
55186;SDS011;55457;52.002;5.464;2023-05-29T12:58:08;5.57;;;1.95;;
55186;SDS011;55457;52.002;5.464;2023-05-29T13:00:35;3.65;;;1.90;;
55186;SDS011;55457;52.002;5.464;2023-05-29T13:03:02;6.40;;;2.00;;
55186;SDS011;55457;52.002;5.464;2023-05-29T13:05:28;2.67;;;1.58;;
55186;SDS011;55457;52.002;5.464;2023-05-29T13:07:53;3.20;;;1.90;;
55186;SDS011;55457;52.002;5.464;2023-05-29T13:10:19;3.95;;;2.30;;
55186;SDS011;55457;52.002;5.464;2023-05-29T13:12:45;3.95;;;2.28;;
55186;SDS011;55457;52.002;5.464;2023-05-29T13:15:11;3.20;;;1.80;;
55186;SDS011;55457;52.002;5.464;2023-05-29T13:17:39;7.45;;;2.15;;
55186;SDS011;55457;52.002;5.464;2023-05-29T13:22:35;5.03;;;1.65;;
55186;SDS011;55457;52.002;5.464;2023-05-29T13:25:01;4.60;;;1.75;;
55186;SDS011;55457;52.002;5.464;2023-05-29T13:27:26;3.63;;;1.88;;
55186;SDS011;55457;52.002;5.464;2023-05-29T13:29:52;5.13;;;2.10;;
55186;SDS011;55457;52.002;5.464;2023-05-29T13:32:18;4.88;;;2.03;;
55186;SDS011;55457;52.002;5.464;2023-05-29T13:34:44;4.13;;;1.70;;
55186;SDS011;55457;52.002;5.464;2023-05-29T13:37:10;4.53;;;2.10;;
55186;SDS011;55457;52.002;5.464;2023-05-29T13:39:35;4.47;;;1.98;;
55186;SDS011;55457;52.002;5.464;2023-05-29T13:42:01;4.28;;;2.15;;
55186;SDS011;55457;52.002;5.464;2023-05-29T13:44:26;3.63;;;1.67;;
55186;SDS011;55457;52.002;5.464;2023-05-29T13:46:51;3.85;;;1.80;;
55186;SDS011;55457;52.002;5.464;2023-05-29T13:49:17;9.07;;;2.38;;
55186;SDS011;55457;52.002;5.464;2023-05-29T13:51:42;5.80;;;1.92;;
55186;SDS011;55457;52.002;5.464;2023-05-29T13:54:11;4.50;;;1.80;;
55186;SDS011;55457;52.002;5.464;2023-05-29T13:56:36;5.00;;;1.73;;
55186;SDS011;55457;52.002;5.464;2023-05-29T13:59:02;4.47;;;1.83;;
55186;SDS011;55457;52.002;5.464;2023-05-29T14:01:31;4.43;;;2.17;;
55186;SDS011;55457;52.002;5.464;2023-05-29T14:03:57;3.33;;;1.63;;
55186;SDS011;55457;52.002;5.464;2023-05-29T14:06:22;4.30;;;1.70;;
55186;SDS011;55457;52.002;5.464;2023-05-29T14:08:47;6.20;;;1.95;;
55186;SDS011;55457;52.002;5.464;2023-05-29T14:11:13;5.13;;;1.88;;
55186;SDS011;55457;52.002;5.464;2023-05-29T14:13:38;4.78;;;1.60;;
55186;SDS011;55457;52.002;5.464;2023-05-29T14:16:04;12.13;;;2.05;;
55186;SDS011;55457;52.002;5.464;2023-05-29T14:18:29;6.85;;;2.38;;
55186;SDS011;55457;52.002;5.464;2023-05-29T14:20:54;3.33;;;1.98;;
55186;SDS011;55457;52.002;5.464;2023-05-29T14:23:20;5.72;;;2.40;;
55186;SDS011;55457;52.002;5.464;2023-05-29T14:25:45;7.95;;;2.17;;
55186;SDS011;55457;52.002;5.464;2023-05-29T14:28:11;5.65;;;1.80;;
55186;SDS011;55457;52.002;5.464;2023-05-29T14:30:37;4.25;;;2.10;;
55186;SDS011;55457;52.002;5.464;2023-05-29T14:33:02;6.93;;;2.15;;
55186;SDS011;55457;52.002;5.464;2023-05-29T14:35:28;4.72;;;2.15;;
55186;SDS011;55457;52.002;5.464;2023-05-29T14:37:53;7.18;;;2.17;;
55186;SDS011;55457;52.002;5.464;2023-05-29T14:40:19;4.35;;;1.80;;
55186;SDS011;55457;52.002;5.464;2023-05-29T14:42:44;7.15;;;2.10;;
55186;SDS011;55457;52.002;5.464;2023-05-29T14:45:10;6.18;;;1.88;;
55186;SDS011;55457;52.002;5.464;2023-05-29T14:47:35;10.65;;;2.88;;
55186;SDS011;55457;52.002;5.464;2023-05-29T14:50:01;6.95;;;2.03;;
55186;SDS011;55457;52.002;5.464;2023-05-29T14:52:26;6.63;;;2.33;;
55186;SDS011;55457;52.002;5.464;2023-05-29T14:54:51;6.72;;;2.03;;
55186;SDS011;55457;52.002;5.464;2023-05-29T14:57:17;5.65;;;2.50;;
55186;SDS011;55457;52.002;5.464;2023-05-29T14:59:42;4.30;;;2.30;;
55186;SDS011;55457;52.002;5.464;2023-05-29T15:02:07;5.80;;;1.90;;
55186;SDS011;55457;52.002;5.464;2023-05-29T15:04:34;6.10;;;2.15;;
55186;SDS011;55457;52.002;5.464;2023-05-29T15:07:00;8.00;;;2.42;;
55186;SDS011;55457;52.002;5.464;2023-05-29T15:09:26;7.05;;;2.00;;
55186;SDS011;55457;52.002;5.464;2023-05-29T15:11:51;5.57;;;1.77;;
55186;SDS011;55457;52.002;5.464;2023-05-29T15:14:16;4.82;;;2.22;;
55186;SDS011;55457;52.002;5.464;2023-05-29T15:16:42;4.82;;;2.08;;
55186;SDS011;55457;52.002;5.464;2023-05-29T15:19:08;3.92;;;1.92;;
55186;SDS011;55457;52.002;5.464;2023-05-29T15:21:34;5.75;;;2.08;;
55186;SDS011;55457;52.002;5.464;2023-05-29T15:24:00;4.30;;;1.90;;
55186;SDS011;55457;52.002;5.464;2023-05-29T15:26:25;4.10;;;2.40;;